Time;durP1;ratioP1;P1;durP2;ratioP2;P2;SDS_P1;SDS_P2;PMS_P1;PMS_P2;Temp;Humidity;BMP_temperature;BMP_pressure;BME280_temperature;BME280_humidity;BME280_pressure;Samples;Min_cycle;Max_cycle;Signal;HPM_P1;HPM_P2
2023/06/25 00:01:46;;;;;;;11.37;7.47;;;;;;;-145.18;100.00;46547.09;5071067;28;20114;-58
2023/06/25 00:04:12;;;;;;;14.60;7.90;;;;;;;-145.18;100.00;46549.06;5073800;28;20060;-58
2023/06/25 00:06:37;;;;;;;12.90;8.60;;;;;;;-145.18;100.00;46551.00;5077189;28;20109;-59
2023/06/25 00:09:03;;;;;;;12.57;7.50;;;;;;;-145.18;100.00;46549.06;5078520;28;20434;-58
2023/06/25 00:11:28;;;;;;;11.90;7.27;;;;;;;-145.18;100.00;46556.88;5075936;28;20036;-59
2023/06/25 00:13:53;;;;;;;12.30;7.83;;;;;;;-145.18;100.00;46558.81;5056341;28;20123;-59
2023/06/25 00:16:19;;;;;;;15.17;8.87;;;;;;;-145.18;100.00;46609.59;5075219;28;20094;-59
2023/06/25 00:18:47;;;;;;;14.40;8.17;;;;;;;-145.18;100.00;46566.63;5074996;28;20063;-59
2023/06/25 00:21:12;;;;;;;13.80;7.60;;;;;;;-145.18;100.00;46621.31;5075018;28;20024;-59
2023/06/25 00:23:38;;;;;;;15.37;8.33;;;;;;;-145.18;100.00;46631.09;5075029;28;20059;-59
2023/06/25 00:26:03;;;;;;;12.23;7.93;;;;;;;-145.18;100.00;46635.00;5075108;28;20128;-59
2023/06/25 00:28:29;;;;;;;13.17;8.00;;;;;;;-145.18;100.00;46638.91;5074101;28;20048;-58
2023/06/25 00:30:54;;;;;;;11.37;7.60;;;;;;;-145.18;100.00;46660.41;5074942;28;20082;-59
2023/06/25 00:33:20;;;;;;;12.20;7.80;;;;;;;-145.18;100.00;46683.84;5076351;28;20103;-59
2023/06/25 00:35:51;;;;;;;14.10;8.53;;;;;;;-145.18;100.00;46648.69;5074825;28;20506;-59
2023/06/25 00:38:19;;;;;;;13.77;8.20;;;;;;;-145.18;100.00;46654.53;5074340;28;20082;-61
2023/06/25 00:40:45;;;;;;;11.87;7.83;;;;;;;-145.18;100.00;46648.69;5073603;28;20415;-61
2023/06/25 00:43:10;;;;;;;13.63;8.10;;;;;;;-145.18;100.00;46660.41;5074540;28;20028;-61
2023/06/25 00:45:35;;;;;;;13.97;8.23;;;;;;;-145.18;100.00;46666.25;5075221;28;20037;-61
2023/06/25 00:48:02;;;;;;;13.00;8.40;;;;;;;-145.18;100.00;46670.16;5077331;28;20170;-61
2023/06/25 00:50:27;;;;;;;11.97;8.53;;;;;;;-145.18;100.00;46672.13;5070581;28;20442;-61
2023/06/25 00:52:54;;;;;;;14.73;8.97;;;;;;;-145.18;100.00;46683.84;5075625;28;20102;-61
2023/06/25 00:55:20;;;;;;;14.67;8.70;;;;;;;-145.18;100.00;46685.78;5075924;28;20032;-61
2023/06/25 00:57:46;;;;;;;12.03;8.20;;;;;;;-145.18;100.00;46681.88;5076208;28;20187;-61
2023/06/25 01:00:14;;;;;;;17.70;9.67;;;;;;;-145.18;100.00;46679.94;5073972;28;20033;-61
2023/06/25 01:02:46;;;;;;;13.87;8.53;;;;;;;-145.18;100.00;46679.94;5058788;28;20063;-61
2023/06/25 01:05:52;;;;;;;13.93;9.03;;;;;;;-145.18;100.00;46679.94;5078905;28;20434;-61
2023/06/25 01:08:20;;;;;;;13.48;8.82;;;;;;;-145.18;100.00;46679.94;5051970;28;20685;-61
2023/06/25 01:10:45;;;;;;;13.83;8.80;;;;;;;-145.18;100.00;46677.97;5073429;28;20507;-61
2023/06/25 01:13:11;;;;;;;14.03;8.97;;;;;;;-145.18;100.00;46677.97;5073766;28;20033;-61
2023/06/25 01:15:36;;;;;;;15.80;9.17;;;;;;;-145.18;100.00;46674.06;5054791;28;20042;-61
2023/06/25 01:18:02;;;;;;;15.13;9.40;;;;;;;-145.18;100.00;46666.25;5073068;28;20158;-61
2023/06/25 01:20:28;;;;;;;13.33;8.70;;;;;;;-145.18;100.00;46674.06;5073760;28;21496;-61
2023/06/25 01:22:57;;;;;;;17.53;9.03;;;;;;;-145.18;100.00;46668.22;5073529;28;20134;-61
2023/06/25 01:25:23;;;;;;;13.90;9.73;;;;;;;-145.18;100.00;46660.41;5055284;28;20451;-61
2023/06/25 01:27:52;;;;;;;13.50;9.40;;;;;;;-145.18;100.00;46662.34;5055488;28;20190;-61
2023/06/25 01:30:20;;;;;;;15.50;9.77;;;;;;;-145.18;100.00;46660.41;5074933;28;20052;-61
2023/06/25 01:32:46;;;;;;;15.17;9.70;;;;;;;-145.18;100.00;46662.34;5054035;28;20036;-61
2023/06/25 01:35:15;;;;;;;15.53;9.80;;;;;;;-145.18;100.00;46662.34;5073844;28;20036;-61
2023/06/25 01:37:41;;;;;;;18.30;10.83;;;;;;;-145.18;100.00;46662.34;5073595;28;20021;-61
2023/06/25 01:40:07;;;;;;;17.63;9.63;;;;;;;-145.18;100.00;46652.59;5072994;28;20025;-61
2023/06/25 01:42:34;;;;;;;14.90;8.90;;;;;;;-145.18;100.00;46648.69;5074592;28;20036;-61
2023/06/25 01:44:59;;;;;;;15.43;9.53;;;;;;;-145.18;100.00;46652.59;5074181;28;20840;-61
2023/06/25 01:47:24;;;;;;;14.00;9.77;;;;;;;-145.18;100.00;46646.72;5073388;28;20036;-59
2023/06/25 01:49:50;;;;;;;18.43;10.03;;;;;;;-145.18;100.00;46683.84;5073060;28;20403;-59
2023/06/25 01:52:15;;;;;;;18.77;10.57;;;;;;;-145.18;100.00;46679.94;5073052;28;20025;-59
2023/06/25 01:54:40;;;;;;;15.73;10.43;;;;;;;-145.18;100.00;46646.72;5074646;28;20115;-58
2023/06/25 01:57:06;;;;;;;21.03;10.90;;;;;;;-145.18;100.00;46679.94;5054770;28;20025;-58
2023/06/25 01:59:34;;;;;;;16.50;10.23;;;;;;;-145.18;100.00;46679.94;5073185;28;20064;-59
2023/06/25 02:02:00;;;;;;;16.43;10.97;;;;;;;-145.18;100.00;46679.94;5072418;28;20107;-58
2023/06/25 02:04:25;;;;;;;20.73;12.00;;;;;;;-145.18;100.00;46679.94;5076986;28;20033;-59
2023/06/25 02:06:50;;;;;;;18.17;10.93;;;;;;;-145.18;100.00;46660.41;5058091;28;20060;-58
2023/06/25 02:09:16;;;;;;;18.37;11.20;;;;;;;-145.18;100.00;46679.94;5072846;28;20461;-58
2023/06/25 02:11:41;;;;;;;19.23;11.27;;;;;;;-145.18;100.00;46677.97;5072765;28;20032;-58
2023/06/25 02:14:07;;;;;;;15.67;9.87;;;;;;;-145.18;100.00;46660.41;5073460;28;20032;-59
2023/06/25 02:16:32;;;;;;;16.87;10.27;;;;;;;-145.18;100.00;46679.94;5073165;28;20426;-58
2023/06/25 02:18:58;;;;;;;17.93;10.60;;;;;;;-145.18;100.00;46679.94;5072845;28;20032;-59
2023/06/25 02:21:23;;;;;;;18.37;10.87;;;;;;;-145.18;100.00;46679.94;5055112;28;20028;-59
2023/06/25 02:23:49;;;;;;;18.37;10.80;;;;;;;-145.18;100.00;46679.94;5072054;28;20495;-58
2023/06/25 02:26:14;;;;;;;15.20;9.67;;;;;;;-145.18;100.00;46644.78;5071957;28;20037;-59
2023/06/25 02:28:40;;;;;;;16.23;10.40;;;;;;;-145.18;100.00;46644.78;5054056;28;20040;-59
2023/06/25 02:31:05;;;;;;;19.23;10.13;;;;;;;-145.18;100.00;46679.94;5072798;28;20036;-59
2023/06/25 02:33:31;;;;;;;17.90;10.47;;;;;;;-145.18;100.00;46679.94;5053789;28;20055;-59
2023/06/25 02:35:56;;;;;;;18.57;9.70;;;;;;;-145.18;100.00;46642.81;5054569;28;20508;-59
2023/06/25 02:38:21;;;;;;;16.63;10.83;;;;;;;-145.18;100.00;46660.41;5054339;28;20032;-59
2023/06/25 02:40:47;;;;;;;19.80;11.17;;;;;;;-145.18;100.00;46644.78;5072365;28;20033;-59
2023/06/25 02:43:12;;;;;;;17.40;9.60;;;;;;;-145.18;100.00;46660.41;5071606;28;20025;-59
2023/06/25 02:45:38;;;;;;;19.43;11.47;;;;;;;-145.18;100.00;46679.94;5072030;28;20535;-59
2023/06/25 02:48:03;;;;;;;19.93;11.73;;;;;;;-145.18;100.00;46660.41;5072560;28;20103;-59
2023/06/25 02:50:29;;;;;;;17.83;10.73;;;;;;;-145.18;100.00;46660.41;5072245;28;20032;-59
2023/06/25 02:52:55;;;;;;;19.03;11.40;;;;;;;-145.18;100.00;46660.41;5072196;28;20032;-59
2023/06/25 02:55:20;;;;;;;19.30;11.03;;;;;;;-145.18;100.00;46660.41;5071522;28;20035;-59
2023/06/25 02:57:46;;;;;;;19.10;11.10;;;;;;;-145.18;100.00;46660.41;5072607;28;20033;-61
2023/06/25 03:00:12;;;;;;;26.47;11.27;;;;;;;-145.18;100.00;46660.41;5071897;28;20090;-61
2023/06/25 03:02:37;;;;;;;17.67;10.10;;;;;;;-145.18;100.00;46660.41;5057084;28;20032;-61
2023/06/25 03:05:03;;;;;;;17.03;10.80;;;;;;;-145.18;100.00;46660.41;5071487;28;20037;-61
2023/06/25 03:07:28;;;;;;;19.13;10.87;;;;;;;-145.18;100.00;46677.97;5072924;28;20032;-62
2023/06/25 03:09:53;;;;;;;19.93;11.23;;;;;;;-145.18;100.00;46679.94;5073029;28;20032;-61
2023/06/25 03:12:19;;;;;;;18.10;11.60;;;;;;;-145.18;100.00;46660.41;5073951;28;20381;-62
2023/06/25 03:14:44;;;;;;;23.23;12.57;;;;;;;-145.18;100.00;46660.41;5071652;28;20391;-61
2023/06/25 03:17:10;;;;;;;18.97;12.20;;;;;;;-145.18;100.00;46677.97;5053182;28;20044;-61
2023/06/25 03:19:35;;;;;;;19.60;10.77;;;;;;;-145.18;100.00;46660.41;5071796;28;20040;-61
2023/06/25 03:22:00;;;;;;;23.03;13.60;;;;;;;-145.18;100.00;46660.41;5071722;28;20036;-61
2023/06/25 03:24:26;;;;;;;21.87;13.33;;;;;;;-145.18;100.00;46660.41;5073890;28;20032;-62
2023/06/25 03:26:51;;;;;;;23.30;14.37;;;;;;;-145.18;100.00;46660.41;5073216;28;20093;-61
2023/06/25 03:29:17;;;;;;;28.03;14.73;;;;;;;-145.18;100.00;46660.41;5053233;28;20079;-61
2023/06/25 03:31:43;;;;;;;24.47;13.70;;;;;;;-145.18;100.00;46660.41;5071569;28;20067;-61
2023/06/25 03:34:08;;;;;;;21.43;13.57;;;;;;;-145.18;100.00;46660.41;5071247;28;20028;-62
2023/06/25 03:36:34;;;;;;;30.53;14.10;;;;;;;-145.18;100.00;46660.41;5071563;28;20120;-61
2023/06/25 03:38:59;;;;;;;25.07;13.70;;;;;;;-145.18;100.00;46660.41;5052886;28;20487;-61
2023/06/25 03:41:25;;;;;;;22.13;13.27;;;;;;;-145.18;100.00;46660.41;5071799;28;20044;-62
2023/06/25 03:43:51;;;;;;;27.47;14.40;;;;;;;-145.18;100.00;46660.41;5071189;28;20028;-61
2023/06/25 03:46:16;;;;;;;23.93;13.70;;;;;;;-145.18;100.00;46660.41;5071052;28;20415;-61
2023/06/25 03:48:42;;;;;;;22.70;13.47;;;;;;;-145.18;100.00;46660.41;5070958;28;20103;-62
2023/06/25 03:51:08;;;;;;;23.90;13.53;;;;;;;-145.18;100.00;46660.41;5071012;28;20111;-62
2023/06/25 03:53:34;;;;;;;18.37;12.73;;;;;;;-145.18;100.00;46660.41;5071295;28;20033;-61
2023/06/25 03:55:59;;;;;;;22.63;13.63;;;;;;;-145.18;100.00;46660.41;5071500;28;20426;-62
2023/06/25 03:58:25;;;;;;;24.50;14.10;;;;;;;-145.18;100.00;46660.41;5072260;28;20081;-61
2023/06/25 04:00:50;;;;;;;21.77;13.53;;;;;;;-145.18;100.00;46660.41;5074447;28;20511;-61
2023/06/25 04:03:15;;;;;;;22.20;12.83;;;;;;;-145.18;100.00;46660.41;5051974;28;20483;-61
2023/06/25 04:05:41;;;;;;;19.57;12.30;;;;;;;-145.18;100.00;46660.41;5069686;28;20049;-61
2023/06/25 04:08:06;;;;;;;20.87;12.37;;;;;;;-145.18;100.00;46660.41;5068378;28;20033;-62
2023/06/25 04:10:32;;;;;;;19.93;12.90;;;;;;;-145.18;100.00;46677.97;5065641;28;20399;-61
2023/06/25 04:12:57;;;;;;;22.33;13.33;;;;;;;-145.18;100.00;46677.97;5052711;28;20056;-62
2023/06/25 04:15:22;;;;;;;19.27;12.47;;;;;;;-145.18;100.00;46677.97;5048914;28;20399;-61
2023/06/25 04:17:48;;;;;;;24.93;13.20;;;;;;;-145.18;100.00;46640.88;5072999;28;20067;-62
2023/06/25 04:20:13;;;;;;;24.17;13.30;;;;;;;-145.18;100.00;46660.41;5052518;28;20036;-62
2023/06/25 04:22:39;;;;;;;25.63;13.53;;;;;;;-145.18;100.00;46640.88;5052728;28;20025;-62
2023/06/25 04:25:05;;;;;;;20.33;13.30;;;;;;;-145.18;100.00;46660.41;5052146;28;20047;-61
2023/06/25 04:27:30;;;;;;;20.07;12.37;;;;;;;-145.18;100.00;46660.41;5070666;28;20025;-61
2023/06/25 04:29:56;;;;;;;20.27;13.83;;;;;;;-145.18;100.00;46677.97;5070230;28;20043;-61
2023/06/25 04:32:21;;;;;;;23.67;14.70;;;;;;;-145.18;100.00;46677.97;5070818;28;20035;-61
2023/06/25 04:34:47;;;;;;;25.80;14.70;;;;;;;-145.18;100.00;46660.41;5072343;28;20065;-62
2023/06/25 04:37:12;;;;;;;22.53;14.17;;;;;;;-145.18;100.00;46660.41;5052050;28;20028;-61
2023/06/25 04:39:40;;;;;;;19.37;13.23;;;;;;;-145.18;100.00;46677.97;5070236;28;20041;-62
2023/06/25 04:42:06;;;;;;;20.33;14.20;;;;;;;-145.18;100.00;46638.91;5067267;28;20381;-62
2023/06/25 04:44:32;;;;;;;23.90;14.67;;;;;;;-145.18;100.00;46660.41;5067465;28;20039;-62
2023/06/25 04:46:57;;;;;;;27.33;15.43;;;;;;;-145.18;100.00;46638.91;5065533;28;20063;-62
2023/06/25 04:49:23;;;;;;;24.20;14.60;;;;;;;-145.18;100.00;46638.91;5072897;28;20028;-61
2023/06/25 04:51:48;;;;;;;23.77;15.17;;;;;;;-145.18;100.00;46642.81;5076843;28;20129;-62
2023/06/25 04:54:14;;;;;;;22.13;14.37;;;;;;;-145.18;100.00;46677.97;5075278;28;20048;-62
2023/06/25 04:56:39;;;;;;;23.93;15.10;;;;;;;-145.18;100.00;46660.41;5072424;28;20036;-61
2023/06/25 04:59:05;;;;;;;24.93;14.93;;;;;;;-145.18;100.00;46676.03;5077518;28;20087;-62
2023/06/25 05:01:30;;;;;;;28.63;15.77;;;;;;;-145.18;100.00;46660.41;5075459;28;20569;-62
2023/06/25 05:03:56;;;;;;;26.03;15.67;;;;;;;-145.18;100.00;46638.91;5073954;28;20024;-62
2023/06/25 05:06:21;;;;;;;24.50;15.17;;;;;;;-145.18;100.00;46636.94;5077663;28;20036;-61
2023/06/25 05:08:47;;;;;;;21.23;14.17;;;;;;;-145.18;100.00;46636.94;5055952;28;20036;-62
2023/06/25 05:11:12;;;;;;;23.60;15.53;;;;;;;-145.18;100.00;46638.91;5076068;28;20506;-62
2023/06/25 05:13:38;;;;;;;24.10;15.10;;;;;;;-145.18;100.00;46640.88;5076140;28;20046;-62
2023/06/25 05:16:04;;;;;;;24.80;15.23;;;;;;;-145.18;100.00;46642.81;5074037;28;20441;-62
2023/06/25 05:18:29;;;;;;;22.83;15.20;;;;;;;-145.18;100.00;46644.78;5073226;28;20063;-59
2023/06/25 05:20:55;;;;;;;24.67;15.53;;;;;;;-145.18;100.00;46646.72;5058583;28;20055;-59
2023/06/25 05:23:20;;;;;;;23.97;15.17;;;;;;;-145.18;100.00;46648.69;5057636;28;20020;-59
2023/06/25 05:25:46;;;;;;;22.50;14.77;;;;;;;-145.18;100.00;46642.81;5074414;28;20039;-59
2023/06/25 05:28:12;;;;;;;24.30;14.67;;;;;;;-145.18;100.00;46654.53;5074799;28;20048;-59
2023/06/25 05:30:37;;;;;;;23.50;15.17;;;;;;;-145.18;100.00;46648.69;5076446;28;20120;-59
2023/06/25 05:33:03;;;;;;;23.70;14.77;;;;;;;-145.18;100.00;46656.50;5074968;28;20036;-59
2023/06/25 05:35:31;;;;;;;23.20;14.13;;;;;;;-145.18;100.00;46654.53;5074096;28;20036;-59
2023/06/25 05:37:57;;;;;;;21.43;15.17;;;;;;;-145.18;100.00;46656.50;5074613;28;20531;-59
2023/06/25 05:40:23;;;;;;;22.27;15.00;;;;;;;-145.18;100.00;46660.41;5057373;28;20032;-59
2023/06/25 05:42:49;;;;;;;24.23;15.00;;;;;;;-145.18;100.00;46662.34;5071998;28;20056;-59
2023/06/25 05:45:14;;;;;;;20.50;13.90;;;;;;;-145.18;100.00;46664.31;5075600;28;20533;-59
2023/06/25 05:47:39;;;;;;;19.57;14.17;;;;;;;-145.18;100.00;46660.41;5074414;28;20040;-59
2023/06/25 05:50:05;;;;;;;18.80;13.33;;;;;;;-145.18;100.00;46670.16;5072820;28;20047;-59
2023/06/25 05:52:31;;;;;;;21.83;14.00;;;;;;;-145.18;100.00;46660.41;5072683;28;20115;-59
2023/06/25 05:54:56;;;;;;;21.60;13.87;;;;;;;-145.18;100.00;46672.13;5055806;28;20024;-59
2023/06/25 05:57:21;;;;;;;22.77;14.40;;;;;;;-145.18;100.00;46677.97;5072978;28;20035;-59
2023/06/25 05:59:47;;;;;;;21.07;14.97;;;;;;;-145.18;100.00;46672.13;5075524;28;20033;-59
2023/06/25 06:02:12;;;;;;;19.70;14.43;;;;;;;-145.18;100.00;46679.94;5072186;28;20040;-59
2023/06/25 06:04:38;;;;;;;19.97;14.23;;;;;;;-145.18;100.00;46683.84;5055909;28;20048;-60
2023/06/25 06:07:03;;;;;;;20.40;14.57;;;;;;;-145.18;100.00;46681.88;5072538;28;20028;-60
2023/06/25 06:09:29;;;;;;;17.77;13.07;;;;;;;-145.18;100.00;46685.78;5073099;28;20127;-59
2023/06/25 06:11:55;;;;;;;22.87;14.10;;;;;;;-145.18;100.00;46683.84;5053319;28;20032;-59
2023/06/25 06:14:20;;;;;;;18.70;13.30;;;;;;;-145.18;100.00;46687.75;5055572;28;20059;-59
2023/06/25 06:16:46;;;;;;;21.60;13.87;;;;;;;-145.18;100.00;46685.78;5075538;28;21153;-59
2023/06/25 06:19:11;;;;;;;19.70;13.67;;;;;;;-145.18;100.00;46685.78;5072320;28;20087;-59
2023/06/25 06:21:38;;;;;;;20.93;13.17;;;;;;;-145.18;100.00;46683.84;5073976;28;20040;-59
2023/06/25 06:24:03;;;;;;;17.77;12.90;;;;;;;-145.18;100.00;46681.88;5054819;28;20385;-59
2023/06/25 06:26:29;;;;;;;21.73;13.47;;;;;;;-145.18;100.00;46646.72;5076778;28;20039;-59
2023/06/25 06:28:54;;;;;;;19.67;13.37;;;;;;;-145.18;100.00;46564.69;5054339;28;20144;-62
2023/06/25 06:31:20;;;;;;;20.70;13.70;;;;;;;-145.18;100.00;46549.06;5074927;28;20032;-62
2023/06/25 06:33:46;;;;;;;21.20;12.20;;;;;;;-145.18;100.00;46539.28;5074200;28;20071;-62
2023/06/25 06:36:12;;;;;;;19.30;12.93;;;;;;;-145.18;100.00;46547.09;5073944;28;20459;-61
2023/06/25 06:38:38;;;;;;;19.33;12.43;;;;;;;-145.18;100.00;46545.16;5058726;28;20032;-62
2023/06/25 06:41:03;;;;;;;17.67;12.77;;;;;;;-145.18;100.00;46549.06;5072140;28;20032;-62
2023/06/25 06:43:28;;;;;;;17.13;12.50;;;;;;;-145.18;100.00;46547.09;5072785;28;20504;-62
2023/06/25 06:45:54;;;;;;;17.70;10.93;;;;;;;-145.18;100.00;46529.53;5073166;28;20071;-62
2023/06/25 06:48:19;;;;;;;16.77;10.83;;;;;;;-145.18;100.00;46539.28;5073830;28;20047;-61
2023/06/25 06:50:44;;;;;;;17.10;11.53;;;;;;;-145.18;100.00;46535.38;5072354;28;20111;-62
2023/06/25 06:53:10;;;;;;;15.27;10.43;;;;;;;-145.18;100.00;46521.72;5075414;28;20037;-62
2023/06/25 06:55:35;;;;;;;16.30;10.77;;;;;;;-145.18;100.00;46529.53;5071965;28;20036;-62
2023/06/25 06:58:01;;;;;;;14.43;10.37;;;;;;;-145.18;100.00;46568.59;5072993;28;20059;-62
2023/06/25 07:00:26;;;;;;;20.93;11.47;;;;;;;-145.18;100.00;46547.09;5054002;28;20474;-62
2023/06/25 07:02:55;;;;;;;18.77;11.57;;;;;;;-145.18;100.00;46551.00;5070762;28;20029;-62
2023/06/25 07:05:21;;;;;;;15.70;10.67;;;;;;;-145.18;100.00;46543.19;5072697;28;20033;-62
2023/06/25 07:07:46;;;;;;;19.73;11.70;;;;;;;-145.18;100.00;46560.78;5071668;28;20089;-62
2023/06/25 07:10:11;;;;;;;18.20;11.00;;;;;;;-145.18;100.00;46574.44;5072658;28;20040;-61
2023/06/25 07:12:37;;;;;;;19.07;11.33;;;;;;;-145.18;100.00;46539.28;5075413;28;20107;-62
2023/06/25 07:15:03;;;;;;;16.10;10.70;;;;;;;-145.18;100.00;46545.16;5071086;28;20376;-62
2023/06/25 07:17:29;;;;;;;17.50;11.43;;;;;;;-145.18;100.00;46593.97;5075261;28;20036;-62
2023/06/25 07:19:54;;;;;;;14.77;10.87;;;;;;;-145.18;100.00;46574.44;5073595;28;20062;-62
2023/06/25 07:22:19;;;;;;;15.57;10.33;;;;;;;-145.18;100.00;46928.00;5072113;28;20406;-62
2023/06/25 07:24:45;;;;;;;16.83;10.77;;;;;;;-145.18;100.00;46828.38;5071336;28;20035;-62
2023/06/25 07:27:10;;;;;;;21.70;11.67;;;;;;;-145.18;100.00;47115.56;5071409;28;20032;-62
2023/06/25 07:29:35;;;;;;;14.48;10.27;;;;;;;-145.18;100.00;47117.50;5071112;28;20465;-62
2023/06/25 07:32:01;;;;;;;16.48;10.38;;;;;;;-145.18;100.00;47144.84;5053048;28;20044;-62
2023/06/25 07:34:26;;;;;;;14.23;9.95;;;;;;;-145.18;100.00;47031.53;5053495;28;20534;-62
2023/06/25 07:36:51;;;;;;;13.35;9.63;;;;;;;-145.18;100.00;47129.22;5053251;28;20033;-62
2023/06/25 07:39:29;;;;;;;16.50;10.95;;;;;;;-145.18;100.00;47053.03;5036033;28;20468;-59
2023/06/25 07:41:56;;;;;;;16.27;9.35;;;;;;;-145.18;100.00;47049.13;5072316;28;20032;-59
2023/06/25 07:44:22;;;;;;;14.70;10.27;;;;;;;-145.18;100.00;47041.31;5053420;28;20412;-59
2023/06/25 07:46:48;;;;;;;14.65;9.57;;;;;;;-145.18;100.00;47047.19;5071061;28;20029;-60
2023/06/25 07:49:13;;;;;;;13.70;9.55;;;;;;;-145.18;100.00;47051.09;5073877;28;20032;-59
2023/06/25 07:51:38;;;;;;;14.40;9.65;;;;;;;-145.18;100.00;47058.91;5055603;28;20074;-59
2023/06/25 07:54:04;;;;;;;12.70;8.50;;;;;;;-145.18;100.00;47037.41;5072981;28;20498;-59
2023/06/25 07:56:29;;;;;;;17.85;8.82;;;;;;;-145.18;100.00;47006.16;5072467;28;20024;-59
2023/06/25 07:58:55;;;;;;;12.25;7.95;;;;;;;-145.18;100.00;47023.72;5073156;28;20051;-59
2023/06/25 08:01:20;;;;;;;13.95;8.07;;;;;;;-145.18;100.00;47015.91;5072127;28;20044;-59
2023/06/25 08:03:46;;;;;;;13.63;7.95;;;;;;;-145.18;100.00;47012.00;5071435;28;20115;-59
2023/06/25 08:06:11;;;;;;;13.75;8.70;;;;;;;-145.18;100.00;47025.69;5071900;28;20032;-59
2023/06/25 08:08:37;;;;;;;12.07;7.57;;;;;;;-145.18;100.00;46992.47;5071163;28;20124;-59
2023/06/25 08:11:02;;;;;;;14.07;7.75;;;;;;;-145.18;100.00;47004.19;5071723;28;20035;-59
2023/06/25 08:13:28;;;;;;;11.50;7.90;;;;;;;-145.18;100.00;46996.38;5071818;28;20410;-59
2023/06/25 08:15:54;;;;;;;16.48;9.02;;;;;;;-145.18;100.00;46996.38;5070945;28;20035;-60
2023/06/25 08:18:20;;;;;;;13.25;7.75;;;;;;;-145.18;100.00;46984.66;5071437;28;20154;-59
2023/06/25 08:20:46;;;;;;;11.15;7.43;;;;;;;-145.18;100.00;46988.56;5073024;28;20036;-60
2023/06/25 08:23:11;;;;;;;10.95;7.43;;;;;;;-145.18;100.00;46984.66;5070918;28;20487;-60
2023/06/25 08:25:36;;;;;;;11.77;7.40;;;;;;;-145.18;100.00;46984.66;5075745;28;20067;-60
2023/06/25 08:28:02;;;;;;;14.52;8.07;;;;;;;-145.18;100.00;46976.84;5075493;28;20445;-60
2023/06/25 08:30:27;;;;;;;10.88;7.43;;;;;;;-145.18;100.00;46994.44;5054987;28;20032;-59
2023/06/25 08:32:53;;;;;;;13.25;7.88;;;;;;;-145.18;100.00;46992.47;5076294;28;20432;-59
2023/06/25 08:35:18;;;;;;;14.50;8.15;;;;;;;-145.18;100.00;46980.75;5074462;28;20035;-59
2023/06/25 08:37:43;;;;;;;15.35;8.35;;;;;;;-145.18;100.00;46974.91;5075071;28;20130;-60
2023/06/25 08:40:12;;;;;;;14.10;8.07;;;;;;;-145.18;100.00;46967.09;5076845;28;20032;-59
2023/06/25 08:42:41;;;;;;;13.70;8.05;;;;;;;-145.18;100.00;46971.00;5058991;28;20040;-59
2023/06/25 08:45:07;;;;;;;12.85;8.13;;;;;;;-145.18;100.00;46965.13;5075558;28;20036;-60
2023/06/25 08:47:37;;;;;;;15.38;8.90;;;;;;;-145.18;100.00;46945.59;5075874;28;20044;-60
2023/06/25 08:50:03;;;;;;;12.57;7.90;;;;;;;-145.18;100.00;46951.44;5076467;28;20028;-62
2023/06/25 08:52:29;;;;;;;12.52;7.80;;;;;;;-145.18;100.00;46959.25;5074761;28;20153;-62
2023/06/25 08:54:55;;;;;;;10.63;7.25;;;;;;;-145.18;100.00;46949.50;5074735;28;20518;-62
2023/06/25 08:57:21;;;;;;;12.85;7.55;;;;;;;-145.18;100.00;46943.63;5076213;28;20036;-62
2023/06/25 08:59:47;;;;;;;14.55;8.10;;;;;;;-145.18;100.00;46955.34;5071685;28;20430;-62
2023/06/25 09:02:12;;;;;;;13.23;8.07;;;;;;;-145.18;100.00;46949.50;5075126;28;20029;-62
2023/06/25 09:04:38;;;;;;;10.73;7.25;;;;;;;-145.18;100.00;46931.91;5077923;28;20035;-62
2023/06/25 09:07:16;;;;;;;12.38;7.38;;;;;;;-145.18;100.00;46933.88;5074011;28;20078;-62
2023/06/25 09:09:43;;;;;;;10.55;7.20;;;;;;;-145.18;100.00;46935.81;5072103;28;20036;-62
2023/06/25 09:12:09;;;;;;;11.20;7.45;;;;;;;-145.18;100.00;46937.78;5079512;28;20498;-62
2023/06/25 09:14:35;;;;;;;12.70;6.82;;;;;;;-145.18;100.00;46939.72;5076523;28;20115;-63
2023/06/25 09:17:02;;;;;;;8.38;6.07;;;;;;;-145.18;100.00;46926.06;5075303;28;20124;-62
2023/06/25 09:19:27;;;;;;;10.43;5.88;;;;;;;-145.18;100.00;46924.09;5073908;28;20155;-62
2023/06/25 09:21:52;;;;;;;7.60;5.57;;;;;;;-145.18;100.00;46935.81;5075755;28;20547;-62
2023/06/25 09:24:19;;;;;;;9.68;5.43;;;;;;;-145.18;100.00;46914.34;5074282;28;20043;-62
2023/06/25 09:26:50;;;;;;;8.90;5.70;;;;;;;-145.18;100.00;46918.25;5073417;28;20025;-62
2023/06/25 09:29:17;;;;;;;8.43;5.75;;;;;;;-145.18;100.00;46918.25;5054342;28;20052;-62
2023/06/25 09:31:46;;;;;;;10.43;6.18;;;;;;;-145.18;100.00;46914.34;5075600;28;20039;-62
2023/06/25 09:34:16;;;;;;;10.25;5.38;;;;;;;-145.18;100.00;46910.44;5064165;28;20028;-62
2023/06/25 09:36:42;;;;;;;9.05;6.40;;;;;;;-145.18;100.00;46902.63;5071049;28;20028;-63
2023/06/25 09:39:09;;;;;;;7.07;5.30;;;;;;;-145.18;100.00;46900.66;5075173;28;20032;-62
2023/06/25 09:41:37;;;;;;;6.43;4.47;;;;;;;-145.18;100.00;46890.91;5073132;28;20397;-62
2023/06/25 09:44:04;;;;;;;6.55;4.43;;;;;;;-145.18;100.00;46902.63;5068850;28;20705;-63
2023/06/25 09:46:34;;;;;;;7.43;5.32;;;;;;;-145.18;100.00;46910.44;5074637;28;20036;-62
2023/06/25 09:49:04;;;;;;;5.80;4.55;;;;;;;-145.18;100.00;46910.44;5075623;28;20033;-62
2023/06/25 09:51:47;;;;;;;9.93;4.88;;;;;;;-145.18;100.00;46902.63;5073021;28;20036;-62
2023/06/25 09:54:15;;;;;;;6.60;4.30;;;;;;;-145.18;100.00;46918.25;5076751;28;20031;-62
2023/06/25 09:56:43;;;;;;;5.25;3.67;;;;;;;-145.18;100.00;46892.84;5072679;28;20099;-62
2023/06/25 09:59:09;;;;;;;5.10;3.53;;;;;;;-145.18;100.00;46900.66;5074005;28;20036;-60
2023/06/25 10:01:36;;;;;;;4.85;3.92;;;;;;;-145.18;100.00;46902.63;5072668;28;20039;-60
2023/06/25 10:04:02;;;;;;;5.47;4.05;;;;;;;-145.18;100.00;46898.72;5072855;28;20028;-60
2023/06/25 10:06:27;;;;;;;6.28;4.20;;;;;;;-145.18;100.00;46900.66;5072664;28;20499;-60
2023/06/25 10:08:54;;;;;;;6.28;3.88;;;;;;;-145.18;100.00;46898.72;5074469;28;20480;-60
2023/06/25 10:11:20;;;;;;;5.90;3.65;;;;;;;-145.18;100.00;46888.94;5072513;28;20130;-60
2023/06/25 10:13:45;;;;;;;5.47;4.10;;;;;;;-145.18;100.00;46885.03;5072714;28;20150;-60
2023/06/25 10:16:17;;;;;;;6.60;4.22;;;;;;;-145.18;100.00;46894.81;5072234;28;20029;-60
2023/06/25 10:18:43;;;;;;;4.45;3.25;;;;;;;-145.18;100.00;46888.94;5076348;28;20028;-60
2023/06/25 10:21:17;;;;;;;5.00;3.67;;;;;;;-145.18;100.00;46877.22;5050801;28;20391;-61
2023/06/25 10:23:42;;;;;;;5.70;4.07;;;;;;;-145.18;100.00;46881.13;5071300;28;20170;-60
2023/06/25 10:26:12;;;;;;;6.22;4.28;;;;;;;-145.18;100.00;46902.63;5073762;28;20851;-60
2023/06/25 10:28:38;;;;;;;4.75;3.47;;;;;;;-145.18;100.00;46888.94;5071824;28;20100;-60
2023/06/25 10:31:13;;;;;;;5.50;3.60;;;;;;;-145.18;100.00;46887.00;5073035;28;20532;-60
2023/06/25 10:33:38;;;;;;;6.38;3.25;;;;;;;-145.18;100.00;46881.13;5071117;28;20020;-60
2023/06/25 10:36:08;;;;;;;4.93;3.72;;;;;;;-145.18;96.94;46875.28;5074477;28;20135;-60
2023/06/25 10:38:33;;;;;;;7.43;4.10;;;;;;;-145.18;96.58;46863.53;5072245;28;20392;-60
2023/06/25 10:40:58;;;;;;;5.45;3.72;;;;;;;-145.18;100.00;46865.50;5073870;28;20043;-60
2023/06/25 10:43:24;;;;;;;5.18;3.65;;;;;;;-145.18;100.00;46867.44;5074994;28;20070;-60
2023/06/25 10:45:54;;;;;;;6.45;4.35;;;;;;;-145.18;100.00;46859.63;5073285;28;20021;-60
2023/06/25 10:48:20;;;;;;;5.95;3.50;;;;;;;-145.18;92.96;46855.72;5071176;28;20048;-60
2023/06/25 10:50:48;;;;;;;5.35;3.47;;;;;;;-145.18;97.22;46859.63;5074839;28;20025;-60
2023/06/25 10:53:18;;;;;;;6.78;3.75;;;;;;;-145.18;91.38;46863.53;5073674;28;20052;-60
2023/06/25 10:55:45;;;;;;;5.00;3.67;;;;;;;-145.18;96.88;46865.50;5072652;28;20035;-60